sensor_id;sensor_type;location;lat;lon;timestamp;pressure;altitude;pressure_sealevel;temperature;humidity
7748;BME280;3918;42.564;23.164;2024-02-04T05:01:07;-11650.84;;;-142.29;100.00
7748;BME280;3918;42.564;23.164;2024-02-04T05:03:34;-11650.84;;;-142.29;100.00
7748;BME280;3918;42.564;23.164;2024-02-04T05:06:02;-11650.84;;;-142.29;100.00
7748;BME280;3918;42.564;23.164;2024-02-04T05:08:29;-11650.84;;;-142.29;100.00
7748;BME280;3918;42.564;23.164;2024-02-04T05:10:56;-11650.84;;;-142.29;100.00
7748;BME280;3918;42.564;23.164;2024-02-04T05:13:22;-11650.84;;;-142.29;100.00
7748;BME280;3918;42.564;23.164;2024-02-04T05:15:49;-11650.84;;;-142.29;100.00
7748;BME280;3918;42.564;23.164;2024-02-04T05:18:18;-11650.84;;;-142.29;100.00
7748;BME280;3918;42.564;23.164;2024-02-04T05:20:45;-11650.84;;;-142.29;100.00
7748;BME280;3918;42.564;23.164;2024-02-04T05:23:13;-11650.84;;;-142.29;100.00
7748;BME280;3918;42.564;23.164;2024-02-04T05:25:40;-11650.84;;;-142.29;100.00
7748;BME280;3918;42.564;23.164;2024-02-04T05:28:07;-11650.84;;;-142.29;100.00
7748;BME280;3918;42.564;23.164;2024-02-04T05:30:35;-11650.84;;;-142.29;100.00
7748;BME280;3918;42.564;23.164;2024-02-04T05:33:03;-11650.84;;;-142.29;100.00
7748;BME280;3918;42.564;23.164;2024-02-04T05:35:33;-11650.84;;;-142.29;100.00
7748;BME280;3918;42.564;23.164;2024-02-04T05:38:02;-11650.84;;;-142.29;100.00
7748;BME280;3918;42.564;23.164;2024-02-04T05:40:29;-11650.84;;;-142.29;100.00
7748;BME280;3918;42.564;23.164;2024-02-04T05:42:57;-11650.84;;;-142.29;100.00
7748;BME280;3918;42.564;23.164;2024-02-04T05:45:24;-11650.84;;;-142.29;100.00
7748;BME280;3918;42.564;23.164;2024-02-04T05:47:50;-11650.84;;;-142.29;100.00
7748;BME280;3918;42.564;23.164;2024-02-04T05:50:16;-11650.84;;;-142.29;100.00
7748;BME280;3918;42.564;23.164;2024-02-04T05:52:45;-11650.84;;;-142.29;100.00
7748;BME280;3918;42.564;23.164;2024-02-04T05:55:12;-11650.84;;;-142.29;100.00
7748;BME280;3918;42.564;23.164;2024-02-04T05:57:39;-11650.84;;;-142.29;100.00
7748;BME280;3918;42.564;23.164;2024-02-04T06:00:07;-11650.84;;;-142.29;100.00
7748;BME280;3918;42.564;23.164;2024-02-04T06:02:35;-11650.84;;;-142.29;100.00
7748;BME280;3918;42.564;23.164;2024-02-04T06:05:02;-11650.84;;;-142.29;100.00
7748;BME280;3918;42.564;23.164;2024-02-04T06:07:29;-11650.84;;;-142.29;100.00
7748;BME280;3918;42.564;23.164;2024-02-04T06:09:58;-11650.84;;;-142.29;100.00
7748;BME280;3918;42.564;23.164;2024-02-04T06:12:28;-11650.84;;;-142.29;100.00
7748;BME280;3918;42.564;23.164;2024-02-04T06:14:55;-11650.84;;;-142.29;100.00
7748;BME280;3918;42.564;23.164;2024-02-04T06:17:22;-11650.84;;;-142.29;100.00
7748;BME280;3918;42.564;23.164;2024-02-04T06:19:49;-11650.84;;;-142.29;100.00
7748;BME280;3918;42.564;23.164;2024-02-04T06:22:16;-11650.84;;;-142.29;100.00
7748;BME280;3918;42.564;23.164;2024-02-04T06:24:43;-11650.84;;;-142.29;100.00
7748;BME280;3918;42.564;23.164;2024-02-04T06:27:12;-11650.84;;;-142.29;100.00
7748;BME280;3918;42.564;23.164;2024-02-04T06:29:39;-11650.84;;;-142.29;100.00
7748;BME280;3918;42.564;23.164;2024-02-04T06:32:06;-11650.84;;;-142.29;100.00
7748;BME280;3918;42.564;23.164;2024-02-04T06:34:33;-11650.84;;;-142.29;100.00
7748;BME280;3918;42.564;23.164;2024-02-04T06:37:00;-11650.84;;;-142.29;100.00
7748;BME280;3918;42.564;23.164;2024-02-04T06:39:26;-11650.84;;;-142.29;100.00
7748;BME280;3918;42.564;23.164;2024-02-04T06:41:53;-11650.84;;;-142.29;100.00
7748;BME280;3918;42.564;23.164;2024-02-04T06:44:23;-11650.84;;;-142.29;100.00
7748;BME280;3918;42.564;23.164;2024-02-04T06:46:50;-11650.84;;;-142.29;100.00
7748;BME280;3918;42.564;23.164;2024-02-04T06:49:16;-11650.84;;;-142.29;100.00
7748;BME280;3918;42.564;23.164;2024-02-04T06:51:43;-11650.84;;;-142.29;100.00
7748;BME280;3918;42.564;23.164;2024-02-04T06:54:10;-11650.84;;;-142.29;100.00
7748;BME280;3918;42.564;23.164;2024-02-04T06:56:37;-11650.84;;;-142.29;100.00
7748;BME280;3918;42.564;23.164;2024-02-04T06:59:04;-11650.84;;;-142.29;100.00
7748;BME280;3918;42.564;23.164;2024-02-04T07:01:32;-11650.84;;;-142.29;100.00
7748;BME280;3918;42.564;23.164;2024-02-04T07:03:59;-11650.84;;;-142.29;100.00
7748;BME280;3918;42.564;23.164;2024-02-04T07:06:26;-11650.84;;;-142.29;100.00
7748;BME280;3918;42.564;23.164;2024-02-04T07:08:53;-11650.84;;;-142.29;100.00
7748;BME280;3918;42.564;23.164;2024-02-04T07:11:19;-11650.84;;;-142.29;100.00
7748;BME280;3918;42.564;23.164;2024-02-04T07:13:46;-11650.84;;;-142.29;100.00
7748;BME280;3918;42.564;23.164;2024-02-04T07:16:13;-11650.84;;;-142.29;100.00
7748;BME280;3918;42.564;23.164;2024-02-04T07:18:41;-11650.84;;;-142.29;100.00
7748;BME280;3918;42.564;23.164;2024-02-04T07:21:08;-11650.84;;;-142.29;100.00
7748;BME280;3918;42.564;23.164;2024-02-04T07:23:35;-11650.84;;;-142.29;100.00
7748;BME280;3918;42.564;23.164;2024-02-04T07:26:02;-11650.84;;;-142.29;100.00
7748;BME280;3918;42.564;23.164;2024-02-04T07:28:29;-11650.84;;;-142.29;100.00
7748;BME280;3918;42.564;23.164;2024-02-04T07:30:55;-11650.84;;;-142.29;100.00
7748;BME280;3918;42.564;23.164;2024-02-04T07:33:22;-11650.84;;;-142.29;100.00
7748;BME280;3918;42.564;23.164;2024-02-04T07:35:52;-11650.84;;;-142.29;100.00
7748;BME280;3918;42.564;23.164;2024-02-04T07:38:18;-11650.84;;;-142.29;100.00
7748;BME280;3918;42.564;23.164;2024-02-04T07:40:45;-11650.84;;;-142.29;100.00
7748;BME280;3918;42.564;23.164;2024-02-04T07:43:12;-11650.84;;;-142.29;100.00
7748;BME280;3918;42.564;23.164;2024-02-04T07:45:39;-11650.84;;;-142.29;100.00
7748;BME280;3918;42.564;23.164;2024-02-04T07:48:06;-11650.84;;;-142.29;100.00
7748;BME280;3918;42.564;23.164;2024-02-04T07:50:34;-11650.84;;;-142.29;100.00
7748;BME280;3918;42.564;23.164;2024-02-04T07:53:03;-11650.84;;;-142.29;100.00
7748;BME280;3918;42.564;23.164;2024-02-04T07:55:30;-11650.84;;;-142.29;100.00
7748;BME280;3918;42.564;23.164;2024-02-04T07:57:57;-11650.84;;;-142.29;100.00
7748;BME280;3918;42.564;23.164;2024-02-04T08:00:23;-11650.84;;;-142.29;100.00
7748;BME280;3918;42.564;23.164;2024-02-04T08:02:50;-11650.84;;;-142.29;100.00
7748;BME280;3918;42.564;23.164;2024-02-04T08:05:17;-11650.84;;;-142.29;100.00
7748;BME280;3918;42.564;23.164;2024-02-04T08:07:44;-11650.84;;;-142.29;100.00
7748;BME280;3918;42.564;23.164;2024-02-04T08:10:12;-11650.84;;;-142.29;100.00
7748;BME280;3918;42.564;23.164;2024-02-04T08:12:40;-11650.84;;;-142.29;100.00
7748;BME280;3918;42.564;23.164;2024-02-04T08:15:08;-11650.84;;;-142.29;100.00
7748;BME280;3918;42.564;23.164;2024-02-04T08:17:35;-11650.84;;;-142.29;100.00
7748;BME280;3918;42.564;23.164;2024-02-04T08:20:02;-11650.84;;;-142.29;100.00
7748;BME280;3918;42.564;23.164;2024-02-04T08:22:30;-11650.84;;;-142.29;100.00
7748;BME280;3918;42.564;23.164;2024-02-04T08:24:57;-11650.84;;;-142.29;100.00
7748;BME280;3918;42.564;23.164;2024-02-04T08:27:25;-11650.84;;;-142.29;100.00
7748;BME280;3918;42.564;23.164;2024-02-04T08:29:53;-11650.84;;;-142.29;100.00
7748;BME280;3918;42.564;23.164;2024-02-04T08:32:20;-11650.84;;;-142.29;100.00
7748;BME280;3918;42.564;23.164;2024-02-04T08:34:47;-11650.84;;;-142.29;100.00
7748;BME280;3918;42.564;23.164;2024-02-04T08:37:14;-11650.84;;;-142.29;98.92
7748;BME280;3918;42.564;23.164;2024-02-04T08:39:40;-11650.84;;;-142.29;98.78
7748;BME280;3918;42.564;23.164;2024-02-04T08:42:07;-11650.84;;;-142.29;99.23
7748;BME280;3918;42.564;23.164;2024-02-04T08:44:35;-11650.84;;;-142.29;100.00
7748;BME280;3918;42.564;23.164;2024-02-04T08:47:02;-11650.84;;;-142.29;100.00
7748;BME280;3918;42.564;23.164;2024-02-04T08:49:29;-11650.84;;;-142.29;100.00
7748;BME280;3918;42.564;23.164;2024-02-04T08:51:56;-11650.84;;;-142.29;100.00
7748;BME280;3918;42.564;23.164;2024-02-04T08:54:25;-11650.84;;;-142.29;100.00
7748;BME280;3918;42.564;23.164;2024-02-04T08:56:51;-11650.84;;;-142.29;100.00
7748;BME280;3918;42.564;23.164;2024-02-04T08:59:18;-11650.84;;;-142.29;99.85
7748;BME280;3918;42.564;23.164;2024-02-04T09:01:46;-11650.84;;;-142.29;97.89
7748;BME280;3918;42.564;23.164;2024-02-04T09:04:13;-11650.84;;;-142.29;97.31
7748;BME280;3918;42.564;23.164;2024-02-04T09:06:40;-11650.84;;;-142.29;96.96
7748;BME280;3918;42.564;23.164;2024-02-04T09:09:07;-11650.84;;;-142.29;98.04
7748;BME280;3918;42.564;23.164;2024-02-04T09:11:34;-11650.84;;;-142.29;98.90
7748;BME280;3918;42.564;23.164;2024-02-04T09:14:01;-11650.84;;;-142.29;98.25
7748;BME280;3918;42.564;23.164;2024-02-04T09:16:29;-11650.84;;;-142.29;99.90
7748;BME280;3918;42.564;23.164;2024-02-04T09:18:57;-11650.84;;;-142.29;99.47
7748;BME280;3918;42.564;23.164;2024-02-04T09:21:24;-11650.84;;;-142.29;100.00
7748;BME280;3918;42.564;23.164;2024-02-04T09:23:51;-11650.84;;;-142.29;99.42
7748;BME280;3918;42.564;23.164;2024-02-04T09:26:18;-11650.84;;;-142.29;98.27
7748;BME280;3918;42.564;23.164;2024-02-04T09:28:45;-11650.84;;;-142.29;98.23
7748;BME280;3918;42.564;23.164;2024-02-04T09:31:12;-11650.84;;;-142.29;98.78
7748;BME280;3918;42.564;23.164;2024-02-04T09:33:39;-11650.84;;;-142.29;99.80
7748;BME280;3918;42.564;23.164;2024-02-04T09:36:07;-11650.84;;;-142.29;100.00
7748;BME280;3918;42.564;23.164;2024-02-04T09:38:34;-11650.84;;;-142.29;98.42
7748;BME280;3918;42.564;23.164;2024-02-04T09:41:01;-11650.84;;;-142.29;96.82
7748;BME280;3918;42.564;23.164;2024-02-04T09:43:31;-11650.84;;;-142.29;95.86
7748;BME280;3918;42.564;23.164;2024-02-04T09:45:58;-11650.84;;;-142.29;94.40
7748;BME280;3918;42.564;23.164;2024-02-04T09:48:26;-11650.84;;;-142.29;93.98
7748;BME280;3918;42.564;23.164;2024-02-04T09:50:56;-11650.84;;;-142.29;92.80
7748;BME280;3918;42.564;23.164;2024-02-04T09:53:31;-11650.84;;;-142.29;91.94
7748;BME280;3918;42.564;23.164;2024-02-04T09:55:58;-11650.84;;;-142.29;92.31
7748;BME280;3918;42.564;23.164;2024-02-04T09:58:26;-11650.84;;;-142.29;93.95
7748;BME280;3918;42.564;23.164;2024-02-04T10:00:53;-11650.84;;;-142.29;92.23
7748;BME280;3918;42.564;23.164;2024-02-04T10:03:20;-11650.84;;;-142.29;92.46
7748;BME280;3918;42.564;23.164;2024-02-04T10:05:47;-11650.84;;;-142.29;92.16
7748;BME280;3918;42.564;23.164;2024-02-04T10:08:14;-11650.84;;;-142.29;92.58
7748;BME280;3918;42.564;23.164;2024-02-04T10:10:42;-11650.84;;;-142.29;95.41
7748;BME280;3918;42.564;23.164;2024-02-04T10:13:09;-11650.84;;;-142.29;96.25
7748;BME280;3918;42.564;23.164;2024-02-04T10:15:36;-11650.84;;;-142.29;97.66
7748;BME280;3918;42.564;23.164;2024-02-04T10:18:03;-11650.84;;;-142.29;100.00
7748;BME280;3918;42.564;23.164;2024-02-04T10:20:31;-11650.84;;;-142.29;100.00
7748;BME280;3918;42.564;23.164;2024-02-04T10:22:58;-11650.84;;;-142.29;100.00
7748;BME280;3918;42.564;23.164;2024-02-04T10:25:25;-11650.84;;;-142.29;100.00
7748;BME280;3918;42.564;23.164;2024-02-04T10:27:54;-11650.84;;;-142.29;100.00
7748;BME280;3918;42.564;23.164;2024-02-04T10:30:21;-11650.84;;;-142.29;100.00
7748;BME280;3918;42.564;23.164;2024-02-04T10:32:50;-11650.84;;;-142.29;100.00
7748;BME280;3918;42.564;23.164;2024-02-04T10:35:17;-11650.84;;;-142.29;100.00
7748;BME280;3918;42.564;23.164;2024-02-04T10:37:44;-11650.84;;;-142.29;100.00
7748;BME280;3918;42.564;23.164;2024-02-04T10:40:11;-11650.84;;;-142.29;100.00
7748;BME280;3918;42.564;23.164;2024-02-04T10:42:38;-11650.84;;;-142.29;100.00
7748;BME280;3918;42.564;23.164;2024-02-04T10:45:10;-11650.84;;;-142.29;100.00
7748;BME280;3918;42.564;23.164;2024-02-04T10:47:38;-11650.84;;;-142.29;100.00
7748;BME280;3918;42.564;23.164;2024-02-04T10:50:06;-11650.84;;;-142.29;100.00
7748;BME280;3918;42.564;23.164;2024-02-04T10:52:36;-11650.84;;;-142.29;100.00
7748;BME280;3918;42.564;23.164;2024-02-04T10:55:07;-11650.84;;;-142.29;100.00
7748;BME280;3918;42.564;23.164;2024-02-04T10:57:35;-11650.84;;;-142.29;100.00
7748;BME280;3918;42.564;23.164;2024-02-04T11:00:02;-11650.84;;;-142.29;100.00
7748;BME280;3918;42.564;23.164;2024-02-04T11:02:34;-11650.84;;;-142.29;100.00
7748;BME280;3918;42.564;23.164;2024-02-04T11:05:01;-11650.84;;;-142.29;100.00
7748;BME280;3918;42.564;23.164;2024-02-04T11:07:31;-11650.84;;;-142.29;100.00
7748;BME280;3918;42.564;23.164;2024-02-04T11:09:58;-11650.84;;;-142.29;100.00
7748;BME280;3918;42.564;23.164;2024-02-04T11:12:27;-11650.84;;;-142.29;100.00
7748;BME280;3918;42.564;23.164;2024-02-04T11:14:56;-11650.84;;;-142.29;100.00
7748;BME280;3918;42.564;23.164;2024-02-04T11:18:02;-11650.84;;;-142.29;98.35
7748;BME280;3918;42.564;23.164;2024-02-04T11:20:49;-11650.84;;;-142.29;98.20
7748;BME280;3918;42.564;23.164;2024-02-04T11:23:31;-11650.84;;;-142.29;98.71
7748;BME280;3918;42.564;23.164;2024-02-04T11:26:00;-11650.84;;;-142.29;97.44
7748;BME280;3918;42.564;23.164;2024-02-04T11:28:28;-11650.84;;;-142.29;98.26
7748;BME280;3918;42.564;23.164;2024-02-04T11:30:55;-11650.84;;;-142.29;97.42
7748;BME280;3918;42.564;23.164;2024-02-04T11:33:23;-11650.84;;;-142.29;96.66
7748;BME280;3918;42.564;23.164;2024-02-04T11:36:00;-11650.84;;;-142.29;97.32
7748;BME280;3918;42.564;23.164;2024-02-04T11:38:31;-11650.84;;;-142.29;96.49
7748;BME280;3918;42.564;23.164;2024-02-04T11:40:58;-11650.84;;;-142.29;95.65
7748;BME280;3918;42.564;23.164;2024-02-04T11:43:25;-11650.84;;;-142.29;95.13
7748;BME280;3918;42.564;23.164;2024-02-04T11:45:52;-11650.84;;;-142.29;94.61
7748;BME280;3918;42.564;23.164;2024-02-04T11:48:20;-11650.84;;;-142.29;91.67
7748;BME280;3918;42.564;23.164;2024-02-04T11:50:53;-11650.84;;;-142.29;91.48
7748;BME280;3918;42.564;23.164;2024-02-04T11:53:21;-11650.84;;;-142.29;92.19
7748;BME280;3918;42.564;23.164;2024-02-04T11:55:53;-11650.84;;;-142.29;91.93
7748;BME280;3918;42.564;23.164;2024-02-04T11:58:20;-11650.84;;;-142.29;91.72
7748;BME280;3918;42.564;23.164;2024-02-04T12:00:52;-11650.84;;;-142.29;91.92
7748;BME280;3918;42.564;23.164;2024-02-04T12:03:28;-11650.84;;;-142.29;90.40
7748;BME280;3918;42.564;23.164;2024-02-04T12:05:57;-11650.84;;;-142.29;91.32
7748;BME280;3918;42.564;23.164;2024-02-04T12:08:24;-11650.84;;;-142.29;89.80
7748;BME280;3918;42.564;23.164;2024-02-04T12:10:52;-11650.84;;;-142.29;90.68
7748;BME280;3918;42.564;23.164;2024-02-04T12:13:19;-11650.84;;;-142.29;89.23
7748;BME280;3918;42.564;23.164;2024-02-04T12:15:47;-11650.84;;;-142.29;90.27
7748;BME280;3918;42.564;23.164;2024-02-04T12:18:14;-11650.84;;;-142.29;89.64
7748;BME280;3918;42.564;23.164;2024-02-04T12:20:46;-11650.84;;;-142.29;91.38
7748;BME280;3918;42.564;23.164;2024-02-04T12:23:15;-11650.84;;;-142.29;91.29
7748;BME280;3918;42.564;23.164;2024-02-04T12:25:43;-11650.84;;;-142.29;92.09
7748;BME280;3918;42.564;23.164;2024-02-04T12:28:09;-11650.84;;;-142.29;91.98
7748;BME280;3918;42.564;23.164;2024-02-04T12:30:36;-11650.84;;;-142.29;92.08
7748;BME280;3918;42.564;23.164;2024-02-04T12:33:05;-11650.84;;;-142.29;92.62
7748;BME280;3918;42.564;23.164;2024-02-04T12:35:32;-11650.84;;;-142.29;92.72
7748;BME280;3918;42.564;23.164;2024-02-04T12:37:59;-11650.84;;;-142.29;93.18
7748;BME280;3918;42.564;23.164;2024-02-04T12:40:28;-11650.84;;;-142.29;94.70
7748;BME280;3918;42.564;23.164;2024-02-04T12:42:57;-11650.84;;;-142.29;95.11
7748;BME280;3918;42.564;23.164;2024-02-04T12:45:25;-11650.84;;;-142.29;94.60
7748;BME280;3918;42.564;23.164;2024-02-04T12:47:52;-11650.84;;;-142.29;94.80
7748;BME280;3918;42.564;23.164;2024-02-04T12:50:20;-11650.84;;;-142.29;94.57
7748;BME280;3918;42.564;23.164;2024-02-04T12:52:48;-11650.84;;;-142.29;94.86
7748;BME280;3918;42.564;23.164;2024-02-04T12:55:26;-11650.84;;;-142.29;94.95
7748;BME280;3918;42.564;23.164;2024-02-04T12:58:03;-11650.84;;;-142.29;94.39
7748;BME280;3918;42.564;23.164;2024-02-04T13:00:30;-11650.84;;;-142.29;93.73
7748;BME280;3918;42.564;23.164;2024-02-04T13:02:58;-11650.84;;;-142.29;93.21
7748;BME280;3918;42.564;23.164;2024-02-04T13:05:25;-11650.84;;;-142.29;91.55
7748;BME280;3918;42.564;23.164;2024-02-04T13:07:54;-11650.84;;;-142.29;90.42
7748;BME280;3918;42.564;23.164;2024-02-04T13:10:23;-11650.84;;;-142.29;89.12
7748;BME280;3918;42.564;23.164;2024-02-04T13:12:59;-11650.84;;;-142.29;91.23
7748;BME280;3918;42.564;23.164;2024-02-04T13:15:29;-11650.84;;;-142.29;91.55
7748;BME280;3918;42.564;23.164;2024-02-04T13:17:56;-11650.84;;;-142.29;91.40
7748;BME280;3918;42.564;23.164;2024-02-04T13:20:23;-11650.84;;;-142.29;93.00
7748;BME280;3918;42.564;23.164;2024-02-04T13:22:50;-11650.84;;;-142.29;93.32
7748;BME280;3918;42.564;23.164;2024-02-04T13:25:19;-11650.84;;;-142.29;94.22
7748;BME280;3918;42.564;23.164;2024-02-04T13:27:47;-11650.84;;;-142.29;94.52
7748;BME280;3918;42.564;23.164;2024-02-04T13:30:14;-11650.84;;;-142.29;95.87
7748;BME280;3918;42.564;23.164;2024-02-04T13:32:42;-11650.84;;;-142.29;94.87
7748;BME280;3918;42.564;23.164;2024-02-04T13:35:09;-11650.84;;;-142.29;95.56
7748;BME280;3918;42.564;23.164;2024-02-04T13:37:38;-11650.84;;;-142.29;95.44
7748;BME280;3918;42.564;23.164;2024-02-04T13:40:07;-11650.84;;;-142.29;95.26
7748;BME280;3918;42.564;23.164;2024-02-04T13:42:35;-11650.84;;;-142.29;95.91
7748;BME280;3918;42.564;23.164;2024-02-04T13:45:02;-11650.84;;;-142.29;95.54
7748;BME280;3918;42.564;23.164;2024-02-04T13:47:29;-11650.84;;;-142.29;96.19
7748;BME280;3918;42.564;23.164;2024-02-04T13:49:57;-11650.84;;;-142.29;96.08
7748;BME280;3918;42.564;23.164;2024-02-04T13:52:24;-11650.84;;;-142.29;96.30
7748;BME280;3918;42.564;23.164;2024-02-04T13:54:51;-11650.84;;;-142.29;95.51
7748;BME280;3918;42.564;23.164;2024-02-04T13:57:18;-11650.84;;;-142.29;95.18
7748;BME280;3918;42.564;23.164;2024-02-04T13:59:44;-11650.84;;;-142.29;94.36
7748;BME280;3918;42.564;23.164;2024-02-04T14:02:11;-11650.84;;;-142.29;92.93
7748;BME280;3918;42.564;23.164;2024-02-04T14:04:38;-11650.84;;;-142.29;92.02
7748;BME280;3918;42.564;23.164;2024-02-04T14:07:06;-11650.84;;;-142.29;92.37
7748;BME280;3918;42.564;23.164;2024-02-04T14:09:33;-11650.84;;;-142.29;92.03
7748;BME280;3918;42.564;23.164;2024-02-04T14:11:59;-11650.84;;;-142.29;93.02
7748;BME280;3918;42.564;23.164;2024-02-04T14:14:26;-11650.84;;;-142.29;92.45
7748;BME280;3918;42.564;23.164;2024-02-04T14:16:53;-11650.84;;;-142.29;93.29
7748;BME280;3918;42.564;23.164;2024-02-04T14:19:20;-11650.84;;;-142.29;93.31
7748;BME280;3918;42.564;23.164;2024-02-04T14:21:47;-11650.84;;;-142.29;94.10
7748;BME280;3918;42.564;23.164;2024-02-04T14:24:16;-11650.84;;;-142.29;94.54
7748;BME280;3918;42.564;23.164;2024-02-04T14:26:42;-11650.84;;;-142.29;94.33
7748;BME280;3918;42.564;23.164;2024-02-04T14:29:09;-11650.84;;;-142.29;95.40
7748;BME280;3918;42.564;23.164;2024-02-04T14:31:36;-11650.84;;;-142.29;95.66
7748;BME280;3918;42.564;23.164;2024-02-04T14:34:03;-11650.84;;;-142.29;96.86
7748;BME280;3918;42.564;23.164;2024-02-04T14:36:29;-11650.84;;;-142.29;96.49
7748;BME280;3918;42.564;23.164;2024-02-04T14:38:56;-11650.84;;;-142.29;96.36
7748;BME280;3918;42.564;23.164;2024-02-04T14:41:25;-11650.84;;;-142.29;95.65
7748;BME280;3918;42.564;23.164;2024-02-04T14:43:52;-11650.84;;;-142.29;95.43
7748;BME280;3918;42.564;23.164;2024-02-04T14:46:19;-11650.84;;;-142.29;94.92
7748;BME280;3918;42.564;23.164;2024-02-04T14:48:45;-11650.84;;;-142.29;96.22
7748;BME280;3918;42.564;23.164;2024-02-04T14:51:12;-11650.84;;;-142.29;96.98
7748;BME280;3918;42.564;23.164;2024-02-04T14:53:39;-11650.84;;;-142.29;97.08
7748;BME280;3918;42.564;23.164;2024-02-04T14:56:06;-11650.84;;;-142.29;98.87
7748;BME280;3918;42.564;23.164;2024-02-04T14:58:35;-11650.84;;;-142.29;97.70
7748;BME280;3918;42.564;23.164;2024-02-04T15:01:02;-11650.84;;;-142.29;97.93
7748;BME280;3918;42.564;23.164;2024-02-04T15:03:30;-11650.84;;;-142.29;99.98
7748;BME280;3918;42.564;23.164;2024-02-04T15:05:56;-11650.84;;;-142.29;98.41
7748;BME280;3918;42.564;23.164;2024-02-04T15:08:23;-11650.84;;;-142.29;98.85
7748;BME280;3918;42.564;23.164;2024-02-04T15:10:50;-11650.84;;;-142.29;100.00
7748;BME280;3918;42.564;23.164;2024-02-04T15:13:18;-11650.84;;;-142.29;100.00
7748;BME280;3918;42.564;23.164;2024-02-04T15:15:46;-11650.84;;;-142.29;100.00
7748;BME280;3918;42.564;23.164;2024-02-04T15:18:14;-11650.84;;;-142.29;100.00
7748;BME280;3918;42.564;23.164;2024-02-04T15:20:41;-11650.84;;;-142.29;100.00
7748;BME280;3918;42.564;23.164;2024-02-04T15:23:09;-11650.84;;;-142.29;100.00
7748;BME280;3918;42.564;23.164;2024-02-04T15:25:36;-11650.84;;;-142.29;100.00
7748;BME280;3918;42.564;23.164;2024-02-04T15:28:04;-11650.84;;;-142.29;100.00
7748;BME280;3918;42.564;23.164;2024-02-04T15:30:32;-11650.84;;;-142.29;100.00
7748;BME280;3918;42.564;23.164;2024-02-04T15:33:01;-11650.84;;;-142.29;100.00
7748;BME280;3918;42.564;23.164;2024-02-04T15:35:28;-11650.84;;;-142.29;100.00
7748;BME280;3918;42.564;23.164;2024-02-04T15:37:56;-11650.84;;;-142.29;100.00
7748;BME280;3918;42.564;23.164;2024-02-04T15:40:24;-11650.84;;;-142.29;100.00
7748;BME280;3918;42.564;23.164;2024-02-04T15:42:50;-11650.84;;;-142.29;100.00
7748;BME280;3918;42.564;23.164;2024-02-04T15:45:17;-11650.84;;;-142.29;100.00
7748;BME280;3918;42.564;23.164;2024-02-04T15:47:48;-11650.84;;;-142.29;100.00
7748;BME280;3918;42.564;23.164;2024-02-04T15:50:18;-11650.84;;;-142.29;100.00
7748;BME280;3918;42.564;23.164;2024-02-04T15:52:46;-11650.84;;;-142.29;100.00
7748;BME280;3918;42.564;23.164;2024-02-04T15:55:14;-11650.84;;;-142.29;100.00
7748;BME280;3918;42.564;23.164;2024-02-04T15:57:45;-11650.84;;;-142.29;100.00
7748;BME280;3918;42.564;23.164;2024-02-04T16:00:15;-11650.84;;;-142.29;100.00
7748;BME280;3918;42.564;23.164;2024-02-04T16:02:48;-11650.84;;;-142.29;100.00
7748;BME280;3918;42.564;23.164;2024-02-04T16:05:16;-11650.84;;;-142.29;100.00
7748;BME280;3918;42.564;23.164;2024-02-04T16:07:45;-11650.84;;;-142.29;100.00
7748;BME280;3918;42.564;23.164;2024-02-04T16:10:14;-11650.84;;;-142.29;100.00
7748;BME280;3918;42.564;23.164;2024-02-04T16:12:50;-11650.84;;;-142.29;100.00
7748;BME280;3918;42.564;23.164;2024-02-04T16:15:22;-11650.84;;;-142.29;100.00
7748;BME280;3918;42.564;23.164;2024-02-04T16:17:49;-11650.84;;;-142.29;100.00
7748;BME280;3918;42.564;23.164;2024-02-04T16:20:17;-11650.84;;;-142.29;100.00
7748;BME280;3918;42.564;23.164;2024-02-04T16:22:46;-11650.84;;;-142.29;100.00
7748;BME280;3918;42.564;23.164;2024-02-04T16:25:13;-11650.84;;;-142.29;100.00
7748;BME280;3918;42.564;23.164;2024-02-04T16:27:41;-11650.84;;;-142.29;100.00
7748;BME280;3918;42.564;23.164;2024-02-04T16:30:09;-11650.84;;;-142.29;100.00
7748;BME280;3918;42.564;23.164;2024-02-04T16:32:36;-11650.84;;;-142.29;100.00
7748;BME280;3918;42.564;23.164;2024-02-04T16:35:03;-11650.84;;;-142.29;100.00
7748;BME280;3918;42.564;23.164;2024-02-04T16:37:30;-11650.84;;;-142.29;100.00
7748;BME280;3918;42.564;23.164;2024-02-04T16:39:58;-11650.84;;;-142.29;100.00
7748;BME280;3918;42.564;23.164;2024-02-04T16:42:25;-11650.84;;;-142.29;100.00
7748;BME280;3918;42.564;23.164;2024-02-04T16:44:51;-11650.84;;;-142.29;100.00
7748;BME280;3918;42.564;23.164;2024-02-04T16:47:18;-11650.84;;;-142.29;100.00
7748;BME280;3918;42.564;23.164;2024-02-04T16:49:45;-11650.84;;;-142.29;100.00
7748;BME280;3918;42.564;23.164;2024-02-04T16:52:12;-11650.84;;;-142.29;100.00
7748;BME280;3918;42.564;23.164;2024-02-04T16:54:40;-11650.84;;;-142.29;100.00
7748;BME280;3918;42.564;23.164;2024-02-04T16:57:10;-11650.84;;;-142.29;100.00
7748;BME280;3918;42.564;23.164;2024-02-04T16:59:37;-11650.84;;;-142.29;100.00
7748;BME280;3918;42.564;23.164;2024-02-04T17:02:10;-11650.84;;;-142.29;100.00
7748;BME280;3918;42.564;23.164;2024-02-04T17:04:37;-11650.84;;;-142.29;100.00
7748;BME280;3918;42.564;23.164;2024-02-04T17:07:05;-11650.84;;;-142.29;100.00
7748;BME280;3918;42.564;23.164;2024-02-04T17:09:32;-11650.84;;;-142.29;100.00
7748;BME280;3918;42.564;23.164;2024-02-04T17:11:59;-11650.84;;;-142.29;100.00
7748;BME280;3918;42.564;23.164;2024-02-04T17:14:28;-11650.84;;;-142.29;100.00
7748;BME280;3918;42.564;23.164;2024-02-04T17:16:59;-11650.84;;;-142.29;100.00
7748;BME280;3918;42.564;23.164;2024-02-04T17:19:38;-11650.84;;;-142.29;100.00
7748;BME280;3918;42.564;23.164;2024-02-04T17:22:14;-11650.84;;;-142.29;100.00
7748;BME280;3918;42.564;23.164;2024-02-04T17:24:45;-11650.84;;;-142.29;100.00
7748;BME280;3918;42.564;23.164;2024-02-04T17:27:14;-11650.84;;;-142.29;100.00
7748;BME280;3918;42.564;23.164;2024-02-04T17:29:43;-11650.84;;;-142.29;100.00
7748;BME280;3918;42.564;23.164;2024-02-04T17:32:11;-11650.84;;;-142.29;100.00
7748;BME280;3918;42.564;23.164;2024-02-04T17:34:38;-11650.84;;;-142.29;100.00
7748;BME280;3918;42.564;23.164;2024-02-04T17:37:06;-11650.84;;;-142.29;100.00